createdAt,value
2024-05-09T00:01:30.306Z,7.20
2024-05-09T00:11:36.296Z,8.10
2024-05-09T00:16:39.892Z,8.70
2024-05-09T00:21:45.837Z,8.80
2024-05-09T00:26:48.736Z,9.60
2024-05-09T00:31:51.983Z,9.10
2024-05-09T00:36:55.038Z,7.60
2024-05-09T00:42:00.216Z,9.90
2024-05-09T00:47:03.976Z,8.90
2024-05-09T00:52:07.643Z,10.10
2024-05-09T00:57:10.675Z,9.10
2024-05-09T01:02:16.250Z,8.20
2024-05-09T01:07:19.123Z,9.50
2024-05-09T01:12:22.070Z,8.40
2024-05-09T01:17:25.752Z,9.70
2024-05-09T01:22:30.635Z,8.80
2024-05-09T01:27:33.476Z,8.50
2024-05-09T01:32:36.430Z,11.00
2024-05-09T01:37:40.300Z,12.10
2024-05-09T01:47:46.038Z,9.40
2024-05-09T01:52:49.155Z,8.10
2024-05-09T01:57:52.060Z,9.40
2024-05-09T02:02:55.022Z,8.60
2024-05-09T02:07:58.154Z,6.90
2024-05-09T02:13:01.253Z,9.30
2024-05-09T02:18:05.078Z,7.70
2024-05-09T02:23:09.568Z,8.80
2024-05-09T02:28:12.706Z,10.40
2024-05-09T02:33:16.083Z,12.90
2024-05-09T02:38:19.137Z,7.60
2024-05-09T02:43:22.402Z,7.70
2024-05-09T02:48:25.387Z,9.30
2024-05-09T02:53:28.420Z,6.90
2024-05-09T02:58:31.377Z,8.40
2024-05-09T03:03:34.479Z,11.00
2024-05-09T03:08:37.659Z,8.70
2024-05-09T03:13:41.754Z,9.70
2024-05-09T03:18:45.418Z,9.00
2024-05-09T03:28:51.196Z,8.60
2024-05-09T03:33:54.177Z,9.30
2024-05-09T03:38:57.124Z,8.90
2024-05-09T03:44:00.169Z,9.70
2024-05-09T03:49:03.348Z,10.30
2024-05-09T03:54:06.583Z,12.50
2024-05-09T03:59:09.431Z,9.60
2024-05-09T04:04:12.445Z,8.70
2024-05-09T04:09:15.371Z,8.80
2024-05-09T04:14:18.222Z,10.40
2024-05-09T04:19:21.283Z,8.80
2024-05-09T04:24:24.445Z,8.30
2024-05-09T04:29:27.441Z,8.20
2024-05-09T04:34:30.561Z,8.80
2024-05-09T04:39:33.496Z,7.10
2024-05-09T04:44:36.376Z,18.00
2024-05-09T04:49:43.189Z,10.10
2024-05-09T04:54:46.385Z,7.20
2024-05-09T04:59:49.655Z,7.70
2024-05-09T05:04:53.791Z,8.20
2024-05-09T05:09:56.797Z,6.80
2024-05-09T05:14:59.648Z,7.10
2024-05-09T05:20:03.006Z,6.30
2024-05-09T05:25:07.386Z,8.00
2024-05-09T05:30:17.553Z,8.00
2024-05-09T05:35:24.371Z,7.60
2024-05-09T05:40:33.504Z,7.60
2024-05-09T05:45:39.952Z,8.50
2024-05-09T05:50:43.899Z,9.90
2024-05-09T05:55:46.954Z,9.20
2024-05-09T06:00:53.019Z,15.40
2024-05-09T06:05:56.517Z,10.30
2024-05-09T06:10:59.746Z,8.80
2024-05-09T06:16:05.033Z,8.20
2024-05-09T06:21:08.134Z,8.60
2024-05-09T06:26:11.288Z,8.40
2024-05-09T06:31:14.463Z,10.80
2024-05-09T06:36:17.562Z,8.70
2024-05-09T06:41:20.644Z,7.60
2024-05-09T06:46:23.792Z,9.60
2024-05-09T06:51:27.084Z,8.00
2024-05-09T07:01:33.221Z,7.40
2024-05-09T07:06:36.201Z,8.80
2024-05-09T07:11:39.488Z,7.50
2024-05-09T07:16:42.655Z,7.50
2024-05-09T07:21:45.619Z,7.50
2024-05-09T07:26:48.633Z,7.50
2024-05-09T07:31:51.778Z,10.20
2024-05-09T07:36:54.838Z,10.10
2024-05-09T07:41:57.765Z,12.30
2024-05-09T07:57:13.000Z,7.70
2024-05-09T08:02:16.203Z,7.00
2024-05-09T08:07:20.186Z,7.80
2024-05-09T08:12:23.343Z,8.90
2024-05-09T08:17:26.327Z,9.20
2024-05-09T08:22:32.624Z,6.20
2024-05-09T08:27:37.013Z,5.90
2024-05-09T08:32:40.771Z,6.90
2024-05-09T08:37:43.959Z,7.80
2024-05-09T08:42:52.435Z,5.70
2024-05-09T08:47:59.706Z,4.80
2024-05-09T08:53:02.846Z,9.80
2024-05-09T08:58:07.556Z,5.60
2024-05-09T09:03:17.728Z,6.40
2024-05-09T09:08:22.495Z,6.00
2024-05-09T09:13:26.672Z,8.60
2024-05-09T09:18:33.216Z,5.80
2024-05-09T09:23:36.523Z,4.40
2024-05-09T09:28:40.868Z,6.80
2024-05-09T09:33:44.358Z,6.20
2024-05-09T09:38:48.501Z,5.40
2024-05-09T09:43:53.497Z,6.20
2024-05-09T09:48:57.225Z,6.00
2024-05-09T09:54:03.585Z,6.90
2024-05-09T09:59:08.725Z,6.20
2024-05-09T10:04:19.141Z,4.20
2024-05-09T10:09:23.328Z,4.50
2024-05-09T10:14:26.963Z,3.10
2024-05-09T10:19:30.010Z,4.50
2024-05-09T10:24:50.436Z,6.00
2024-05-09T10:30:02.822Z,4.30
2024-05-09T10:35:15.070Z,3.80
2024-05-09T10:40:26.548Z,4.00
2024-05-09T10:45:35.925Z,3.40
2024-05-09T10:50:43.724Z,4.70
2024-05-09T10:56:00.143Z,4.10
2024-05-09T11:01:06.772Z,3.60
2024-05-09T11:06:11.602Z,6.00
2024-05-09T11:11:15.755Z,4.20
2024-05-09T11:16:21.251Z,3.40
2024-05-09T11:21:25.128Z,3.20
2024-05-09T11:26:29.618Z,2.70
2024-05-09T11:31:33.122Z,3.50
2024-05-09T11:36:36.332Z,5.60
2024-05-09T11:41:39.530Z,4.10
2024-05-09T11:46:43.576Z,5.40
2024-05-09T11:51:46.436Z,5.30
2024-05-09T11:56:51.666Z,3.60
2024-05-09T12:01:54.936Z,4.70
2024-05-09T12:12:01.223Z,5.20
2024-05-09T12:17:05.768Z,3.50
2024-05-09T12:22:08.914Z,5.90
2024-05-09T12:27:12.123Z,5.70
2024-05-09T12:32:15.124Z,3.80
2024-05-09T12:42:27.089Z,4.90
2024-05-09T12:47:31.657Z,4.90
2024-05-09T12:57:37.618Z,4.00
2024-05-09T13:02:43.122Z,4.10
2024-05-09T13:07:47.069Z,5.80
2024-05-09T13:12:50.148Z,4.70
2024-05-09T13:17:53.526Z,4.30
2024-05-09T13:22:56.588Z,3.50
2024-05-09T13:27:59.748Z,4.90
2024-05-09T13:38:06.027Z,6.00
2024-05-09T13:43:09.344Z,3.40
2024-05-09T13:48:12.890Z,3.20
2024-05-09T13:53:16.174Z,4.10
2024-05-09T13:58:19.375Z,4.20
2024-05-09T14:03:22.658Z,8.40
2024-05-09T14:08:26.118Z,5.70
2024-05-09T14:13:29.106Z,3.00
2024-05-09T14:18:32.516Z,3.70
2024-05-09T14:23:35.705Z,4.30
2024-05-09T14:28:38.712Z,5.10
2024-05-09T14:33:41.919Z,4.50
2024-05-09T14:53:54.752Z,3.30
2024-05-09T14:58:58.071Z,3.50
2024-05-09T15:04:02.548Z,6.00
2024-05-09T15:09:07.668Z,7.50
2024-05-09T15:14:10.690Z,4.90
2024-05-09T15:19:13.805Z,5.40
2024-05-09T15:24:16.977Z,5.60
2024-05-09T15:29:19.977Z,4.40
2024-05-09T15:34:23.002Z,4.60
2024-05-09T15:44:31.448Z,6.70
2024-05-09T15:49:34.761Z,3.70
2024-05-09T15:54:37.981Z,3.20
2024-05-09T16:09:47.538Z,3.60
2024-05-09T16:19:55.583Z,4.50
2024-05-09T16:24:58.683Z,5.60
2024-05-09T16:30:05.450Z,4.70
2024-05-09T16:35:10.596Z,6.20
2024-05-09T16:40:22.066Z,6.90
2024-05-09T16:45:33.578Z,3.80
2024-05-09T16:50:37.503Z,4.20
2024-05-09T16:55:40.741Z,8.20
2024-05-09T17:00:44.523Z,7.60
2024-05-09T17:05:50.754Z,6.30
2024-05-09T17:10:54.181Z,7.30
2024-05-09T17:15:57.522Z,7.10
2024-05-09T17:26:03.703Z,4.60
2024-05-09T17:36:10.607Z,7.70
2024-05-09T17:41:13.640Z,6.50
2024-05-09T17:46:17.065Z,9.40
2024-05-09T17:51:20.239Z,8.60
2024-05-09T17:56:23.646Z,6.60
2024-05-09T18:06:29.786Z,9.10
2024-05-09T18:11:32.882Z,7.90
2024-05-09T18:16:36.135Z,9.30
2024-05-09T18:21:39.382Z,11.10
2024-05-09T18:26:42.492Z,10.90
2024-05-09T18:31:45.504Z,12.00
2024-05-09T18:36:48.749Z,71.50
2024-05-09T18:46:55.144Z,31.40
2024-05-09T18:51:58.298Z,24.00
2024-05-09T18:57:01.333Z,29.70
2024-05-09T19:02:04.902Z,36.90
2024-05-09T19:07:08.741Z,39.70
2024-05-09T19:12:11.912Z,30.60
2024-05-09T19:17:15.276Z,24.80
2024-05-09T19:27:24.410Z,15.20
2024-05-09T19:32:27.440Z,16.70
2024-05-09T19:37:31.822Z,15.40
2024-05-09T19:42:34.829Z,16.20
2024-05-09T19:47:38.048Z,19.90
2024-05-09T19:52:42.394Z,21.20
2024-05-09T19:57:45.425Z,33.00
2024-05-09T20:02:48.692Z,26.90
2024-05-09T20:07:51.887Z,33.00
2024-05-09T20:12:54.925Z,28.40
2024-05-09T20:17:58.381Z,29.70
2024-05-09T20:23:04.799Z,24.60
2024-05-09T20:28:08.163Z,26.40
2024-05-09T20:38:15.848Z,21.70
2024-05-09T20:43:19.060Z,25.00
2024-05-09T20:48:22.330Z,22.20
2024-05-09T20:53:25.480Z,18.50
2024-05-09T20:58:29.231Z,17.80
2024-05-09T21:03:32.755Z,16.40
2024-05-09T21:13:39.333Z,14.80
2024-05-09T21:18:42.397Z,14.70
2024-05-09T21:23:45.784Z,12.40
2024-05-09T21:28:48.852Z,12.70
2024-05-09T21:33:52.069Z,12.90
2024-05-09T21:43:58.271Z,10.60
2024-05-09T21:49:01.223Z,11.70
2024-05-09T21:54:04.299Z,9.70
2024-05-09T21:59:07.300Z,13.40
2024-05-09T22:04:11.110Z,11.50
2024-05-09T22:09:14.416Z,14.60
2024-05-09T22:14:17.428Z,14.10
2024-05-09T22:19:21.642Z,11.70
2024-05-09T22:24:25.084Z,12.30
2024-05-09T22:35:30.844Z,13.80
2024-05-09T22:40:44.791Z,12.10
2024-05-09T22:45:52.683Z,12.00
2024-05-09T22:50:56.077Z,13.60
2024-05-09T22:55:59.242Z,12.60
2024-05-09T23:01:02.647Z,15.70
2024-05-09T23:11:10.160Z,13.00
2024-05-09T23:16:13.909Z,12.40
2024-05-09T23:26:20.189Z,14.30
2024-05-09T23:31:23.572Z,18.00
2024-05-09T23:36:30.483Z,16.40
2024-05-09T23:41:33.712Z,15.90
2024-05-09T23:46:37.000Z,14.10
2024-05-09T23:51:40.576Z,11.40
2024-05-09T23:56:43.991Z,13.70
